createdAt,value
2018-10-07T00:04:05.374Z,14
2018-10-07T00:09:07.824Z,13
2018-10-07T00:14:10.293Z,15
2018-10-07T00:19:12.727Z,14
2018-10-07T00:24:15.185Z,13
2018-10-07T00:29:17.668Z,14
2018-10-07T00:34:20.097Z,13
2018-10-07T00:39:22.557Z,13
2018-10-07T00:44:25.017Z,15
2018-10-07T00:49:27.468Z,14
2018-10-07T00:54:29.933Z,12
2018-10-07T00:59:32.424Z,13
2018-10-07T01:04:34.853Z,13
2018-10-07T01:09:37.330Z,12
2018-10-07T01:14:39.763Z,14
2018-10-07T01:19:42.331Z,14
2018-10-07T01:24:44.689Z,13
2018-10-07T01:29:47.144Z,13
2018-10-07T01:34:49.583Z,12
2018-10-07T01:39:52.070Z,13
2018-10-07T01:44:54.513Z,12
2018-10-07T01:49:56.964Z,14
2018-10-07T01:54:59.421Z,13
2018-10-07T02:00:06.876Z,13
2018-10-07T02:05:04.364Z,14
2018-10-07T02:10:06.892Z,14
2018-10-07T02:15:09.267Z,13
2018-10-07T02:20:11.713Z,14
2018-10-07T02:25:14.167Z,14
2018-10-07T02:30:16.673Z,14
2018-10-07T02:35:19.085Z,13
2018-10-07T02:40:21.539Z,14
2018-10-07T02:45:24.018Z,13
2018-10-07T02:50:26.461Z,13
2018-10-07T02:55:28.919Z,12
2018-10-07T03:00:31.381Z,14
2018-10-07T03:05:33.831Z,16
2018-10-07T03:10:36.293Z,16
2018-10-07T03:15:38.805Z,15
2018-10-07T03:20:41.241Z,18
2018-10-07T03:25:43.657Z,17
2018-10-07T03:30:46.132Z,15
2018-10-07T03:35:48.580Z,15
2018-10-07T03:40:51.046Z,16
2018-10-07T03:45:53.603Z,15
2018-10-07T03:50:55.991Z,15
2018-10-07T03:55:58.397Z,15
2018-10-07T04:01:00.899Z,20
2018-10-07T04:06:03.389Z,15
2018-10-07T04:11:05.843Z,15
2018-10-07T04:16:08.433Z,15
2018-10-07T04:21:10.701Z,14
2018-10-07T04:26:18.144Z,14
2018-10-07T04:31:15.701Z,17
2018-10-07T04:36:18.126Z,15
2018-10-07T04:41:20.529Z,15
2018-10-07T04:46:23.337Z,15
2018-10-07T04:51:25.443Z,14
2018-10-07T04:56:27.895Z,15
2018-10-07T05:01:30.437Z,14
2018-10-07T05:06:32.818Z,14
2018-10-07T05:11:35.278Z,16
2018-10-07T05:16:37.736Z,16
2018-10-07T05:21:40.196Z,16
2018-10-07T05:26:42.671Z,15
2018-10-07T05:31:45.110Z,15
2018-10-07T05:36:47.572Z,14
2018-10-07T05:41:50.022Z,13
2018-10-07T05:46:52.490Z,13
2018-10-07T05:51:54.934Z,13
2018-10-07T05:56:57.390Z,14
2018-10-07T06:01:59.925Z,12
2018-10-07T06:07:02.306Z,13
2018-10-07T06:12:04.762Z,12
2018-10-07T06:17:07.502Z,13
2018-10-07T06:22:09.692Z,12
2018-10-07T06:27:12.127Z,13
2018-10-07T06:32:14.601Z,11
2018-10-07T06:37:17.068Z,12
2018-10-07T06:42:19.524Z,9
2018-10-07T06:47:21.977Z,9
2018-10-07T06:52:24.449Z,9
2018-10-07T06:57:26.893Z,9
2018-10-07T07:02:29.370Z,10
2018-10-07T07:07:31.836Z,10
2018-10-07T07:12:34.276Z,10
2018-10-07T07:17:36.740Z,10
2018-10-07T07:22:39.171Z,10
2018-10-07T07:27:41.638Z,9
2018-10-07T07:32:44.094Z,9
2018-10-07T07:37:46.596Z,11
2018-10-07T07:42:49.017Z,12
2018-10-07T07:47:51.475Z,14
2018-10-07T07:52:53.934Z,13
2018-10-07T07:57:56.400Z,14
2018-10-07T08:02:58.845Z,13
2018-10-07T08:08:01.313Z,16
2018-10-07T08:13:03.785Z,16
2018-10-07T08:18:06.228Z,15
2018-10-07T08:23:08.676Z,16
2018-10-07T08:28:11.164Z,16
2018-10-07T08:33:13.670Z,19
2018-10-07T08:38:16.062Z,17
2018-10-07T08:43:18.522Z,20
2018-10-07T08:48:20.994Z,23
2018-10-07T08:53:23.435Z,21
2018-10-07T08:58:25.929Z,20
2018-10-07T09:03:28.382Z,26
2018-10-07T09:08:30.814Z,33
2018-10-07T09:13:33.257Z,31
2018-10-07T09:18:35.736Z,35
2018-10-07T09:23:38.294Z,38
2018-10-07T09:28:40.654Z,46
2018-10-07T09:33:43.103Z,42
2018-10-07T09:38:45.564Z,48
2018-10-07T09:43:48.015Z,54
2018-10-07T09:48:50.475Z,58
2018-10-07T09:53:52.982Z,53
2018-10-07T09:58:55.389Z,49
2018-10-07T10:03:57.922Z,57
2018-10-07T10:09:00.314Z,56
2018-10-07T10:14:02.785Z,61
2018-10-07T10:19:05.258Z,68
2018-10-07T10:24:07.689Z,68
2018-10-07T10:29:10.314Z,66
2018-10-07T10:34:12.600Z,70
2018-10-07T10:39:15.089Z,69
2018-10-07T10:44:17.512Z,71
2018-10-07T10:49:19.966Z,91
2018-10-07T10:54:22.417Z,79
2018-10-07T10:59:24.881Z,88
2018-10-07T11:04:27.473Z,74
2018-10-07T11:09:29.808Z,67
2018-10-07T11:14:32.252Z,77
2018-10-07T11:19:34.801Z,79
2018-10-07T11:24:37.168Z,86
2018-10-07T11:29:39.672Z,79
2018-10-07T11:34:42.167Z,77
2018-10-07T11:39:44.549Z,97
2018-10-07T11:44:47.150Z,80
2018-10-07T11:49:49.468Z,81
2018-10-07T11:54:51.957Z,75
2018-10-07T11:59:54.404Z,82
2018-10-07T12:04:56.844Z,70
2018-10-07T12:09:59.300Z,69
2018-10-07T12:15:01.887Z,80
2018-10-07T12:20:04.364Z,69
2018-10-07T12:25:06.681Z,81
2018-10-07T12:30:09.136Z,81
2018-10-07T12:35:11.593Z,88
2018-10-07T12:40:14.193Z,81
2018-10-07T12:45:16.608Z,92
2018-10-07T12:50:18.981Z,88
2018-10-07T12:55:21.430Z,88
2018-10-07T13:00:23.881Z,86
2018-10-07T13:05:26.367Z,85
2018-10-07T13:10:28.799Z,85
2018-10-07T13:15:31.265Z,94
2018-10-07T13:20:33.799Z,88
2018-10-07T13:25:36.573Z,90
2018-10-07T13:30:38.714Z,79
2018-10-07T13:35:41.084Z,69
2018-10-07T13:40:43.636Z,77
2018-10-07T13:45:45.999Z,63
2018-10-07T13:50:48.462Z,84
2018-10-07T13:55:50.923Z,75
2018-10-07T14:00:53.405Z,68
2018-10-07T14:05:55.913Z,61
2018-10-07T14:10:58.303Z,66
2018-10-07T14:16:01.018Z,65
2018-10-07T14:21:03.212Z,62
2018-10-07T14:26:05.663Z,63
2018-10-07T14:31:08.174Z,57
2018-10-07T14:36:10.805Z,51
2018-10-07T14:41:13.063Z,52
2018-10-07T14:46:15.499Z,48
2018-10-07T14:51:17.954Z,41
2018-10-07T14:56:20.437Z,34
2018-10-07T15:01:22.875Z,29
2018-10-07T15:06:25.328Z,30
2018-10-07T15:11:27.775Z,34
2018-10-07T15:16:30.249Z,28
2018-10-07T15:21:32.701Z,25
2018-10-07T15:26:35.151Z,27
2018-10-07T15:31:37.629Z,29
2018-10-07T15:36:40.079Z,24
2018-10-07T15:41:42.528Z,24
2018-10-07T15:46:44.991Z,19
2018-10-07T15:51:47.449Z,18
2018-10-07T15:56:50.045Z,18
2018-10-07T16:01:52.387Z,17
2018-10-07T16:06:54.838Z,18
2018-10-07T16:11:57.290Z,15
2018-10-07T16:16:59.762Z,13
2018-10-07T16:22:02.278Z,13
2018-10-07T16:27:04.652Z,11
2018-10-07T16:32:07.159Z,13
2018-10-07T16:37:09.602Z,13
2018-10-07T16:42:12.074Z,10
2018-10-07T16:47:14.478Z,11
2018-10-07T16:52:16.944Z,10
2018-10-07T16:57:19.413Z,14
2018-10-07T17:02:21.857Z,12
2018-10-07T17:07:24.342Z,11
2018-10-07T17:12:26.843Z,13
2018-10-07T17:17:29.235Z,14
2018-10-07T17:22:31.686Z,13
2018-10-07T17:27:34.134Z,14
2018-10-07T17:32:36.616Z,16
2018-10-07T17:37:39.067Z,14
2018-10-07T17:42:41.533Z,13
2018-10-07T17:47:43.967Z,13
2018-10-07T17:52:46.454Z,12
2018-10-07T17:57:48.897Z,9
2018-10-07T18:02:51.495Z,8
2018-10-07T18:07:53.806Z,6
2018-10-07T18:12:56.251Z,5
2018-10-07T18:17:58.806Z,7
2018-10-07T18:23:01.179Z,6
2018-10-07T18:28:03.622Z,6
2018-10-07T18:33:06.081Z,5
2018-10-07T18:38:08.571Z,7
2018-10-07T18:43:11.131Z,6
2018-10-07T18:48:13.522Z,5
2018-10-07T18:53:16.215Z,7
2018-10-07T18:58:18.379Z,6
2018-10-07T19:03:20.888Z,5
2018-10-07T19:08:23.423Z,5
2018-10-07T19:13:25.752Z,7
2018-10-07T19:18:28.227Z,8
2018-10-07T19:23:30.668Z,4
2018-10-07T19:28:33.116Z,4
2018-10-07T19:33:35.589Z,4
2018-10-07T19:38:38.036Z,5
2018-10-07T19:43:40.509Z,3
2018-10-07T19:48:42.952Z,5
2018-10-07T19:53:45.448Z,4
2018-10-07T19:58:47.887Z,6
2018-10-07T20:03:50.317Z,3
2018-10-07T20:08:52.807Z,5
2018-10-07T20:13:55.245Z,4
2018-10-07T20:18:57.695Z,4
2018-10-07T20:24:00.167Z,3
2018-10-07T20:29:02.625Z,3
2018-10-07T20:34:05.163Z,3
2018-10-07T20:39:07.534Z,2
2018-10-07T20:44:09.981Z,5
2018-10-07T20:49:12.483Z,4
2018-10-07T20:54:14.994Z,5
2018-10-07T20:59:17.355Z,4
2018-10-07T21:04:19.881Z,3
2018-10-07T21:09:22.277Z,2
2018-10-07T21:14:24.785Z,2
2018-10-07T21:19:27.201Z,4
2018-10-07T21:24:29.730Z,4
2018-10-07T21:29:32.109Z,3
2018-10-07T21:34:34.571Z,3
2018-10-07T21:39:37.023Z,2
2018-10-07T21:44:39.469Z,3
2018-10-07T21:49:42.048Z,2
2018-10-07T21:54:44.388Z,2
2018-10-07T21:59:46.867Z,3
2018-10-07T22:04:49.309Z,3
2018-10-07T22:09:51.774Z,4
2018-10-07T22:14:54.261Z,2
2018-10-07T22:19:56.722Z,3
2018-10-07T22:24:59.148Z,4
2018-10-07T22:30:01.652Z,3
2018-10-07T22:35:04.072Z,6
2018-10-07T22:40:06.620Z,3
2018-10-07T22:45:08.963Z,4
2018-10-07T22:50:11.433Z,3
2018-10-07T22:55:13.895Z,3
2018-10-07T23:00:16.345Z,4
2018-10-07T23:05:18.793Z,5
2018-10-07T23:10:21.264Z,5
2018-10-07T23:15:23.725Z,5
2018-10-07T23:20:26.184Z,7
2018-10-07T23:30:31.083Z,6
2018-10-07T23:35:33.551Z,16
2018-10-07T23:40:35.996Z,6
2018-10-07T23:45:38.619Z,9
2018-10-07T23:50:40.914Z,5
2018-10-07T23:55:43.367Z,12
